PWSweather.com
Personal Weather Stations
Station Observations
DELHOVEN
DormagenDE 41540

DormagenDE 41540

Lat: 51.083, Lon: 6.775

Elevation: 120

Station Type: WH1080

Latest ConditionsUpdated 11:58:42 AM GMT+01:01 Thursday, Nov 23, 2017
Currently Today's Max Today's Min Today's Average
Temperature 59.7°F15.4°C 60.1°F15.6°C 46.4°F8.0°C 51.5°F10.8°C
Dew Point 47.9°F8.8°C 47.9°F8.8°C 39.3°F4.1°C 42.3°F5.7°C
Winds 7.6 mph NW12.2 kmh NW 16.8 mph NW27.0 kmh NW - 6.7 mph 10.8 kmh
Wind Gusts 11.4 mph18.3 kmh 24.4 mph39.3 kmh - -
Humidity 65% 77% 63% 71%
Pressure 29.60 in1002.4 mb 29.60 in1002.4 mb 29.52 in999.7 mb -
Hour Temp Dew Point Humidity Winds Wind Gusts Pressure Precip Precip Rate Daily Precip Total
11:58 AM 59.7°F15.4°C 47.9°F8.8°C 65% 7.6 mph NW12.2 kmh NW 11.4 mph18.3 kmh 29.60 in1002.4 mb 0.00 in0.0 mm 0.00 in0.0 mm 0.00 in0.0 mm
11:53 AM 59.9°F15.5°C 47.7°F8.7°C 64% 9.2 mph WSW14.8 kmh WSW 13.6 mph21.9 kmh 29.59 in1002.0 mb 0.00 in0.0 mm 0.00 in0.0 mm 0.00 in0.0 mm
11:48 AM 59.9°F15.5°C 47.7°F8.7°C 64% 7.6 mph NW12.2 kmh NW 15.2 mph24.5 kmh 29.59 in1002.0 mb 0.00 in0.0 mm 0.00 in0.0 mm 0.00 in0.0 mm
11:43 AM 60.1°F15.6°C 47.4°F8.6°C 63% 9.2 mph SSE14.8 kmh SSE 12.1 mph19.5 kmh 29.59 in1002.0 mb 0.00 in0.0 mm 0.00 in0.0 mm 0.00 in0.0 mm
11:38 AM 59.9°F15.5°C 47.3°F8.5°C 63% 5.4 mph S8.7 kmh S 13.6 mph21.9 kmh 29.59 in1002.0 mb 0.00 in0.0 mm 0.00 in0.0 mm 0.00 in0.0 mm
11:33 AM 59.9°F15.5°C 47.3°F8.5°C 63% 9.8 mph NW15.8 kmh NW 14.5 mph23.3 kmh 29.58 in1001.7 mb 0.00 in0.0 mm 0.00 in0.0 mm 0.00 in0.0 mm
11:28 AM 59.5°F15.3°C 46.9°F8.3°C 63% 9.2 mph S14.8 kmh S 13.6 mph21.9 kmh 29.58 in1001.7 mb 0.00 in0.0 mm 0.00 in0.0 mm 0.00 in0.0 mm
11:18 AM 59.4°F15.2°C 46.8°F8.2°C 63% 8.3 mph NW13.4 kmh NW 14.5 mph23.3 kmh 29.58 in1001.7 mb 0.00 in0.0 mm 0.00 in0.0 mm 0.00 in0.0 mm
11:13 AM 59.4°F15.2°C 46.8°F8.2°C 63% 8.3 mph SW13.4 kmh SW 12.1 mph19.5 kmh 29.58 in1001.7 mb 0.00 in0.0 mm 0.00 in0.0 mm 0.00 in0.0 mm
11:08 AM 59.4°F15.2°C 46.8°F8.2°C 63% 10.7 mph S17.2 kmh S 15.2 mph24.5 kmh 29.57 in1001.4 mb 0.00 in0.0 mm 0.00 in0.0 mm 0.00 in0.0 mm
11:03 AM 59.0°F15.0°C 46.4°F8.0°C 63% 16.8 mph WNW27.0 kmh WNW 22.1 mph35.6 kmh 29.57 in1001.4 mb 0.00 in0.0 mm 0.00 in0.0 mm 0.00 in0.0 mm
10:58 AM 58.6°F14.8°C 46.5°F8.1°C 64% 8.3 mph NNW13.4 kmh NNW 17.4 mph28.0 kmh 29.57 in1001.4 mb 0.00 in0.0 mm 0.00 in0.0 mm 0.00 in0.0 mm
10:53 AM 58.5°F14.7°C 46.3°F7.9°C 64% 13.0 mph SSW20.9 kmh SSW 20.6 mph33.2 kmh 29.56 in1001.0 mb 0.00 in0.0 mm 0.00 in0.0 mm 0.00 in0.0 mm
10:48 AM 58.3°F14.6°C 46.2°F7.9°C 64% 8.3 mph S13.4 kmh S 13.6 mph21.9 kmh 29.56 in1001.0 mb 0.00 in0.0 mm 0.00 in0.0 mm 0.00 in0.0 mm
10:43 AM 58.1°F14.5°C 46.0°F7.8°C 64% 9.2 mph SE14.8 kmh SE 14.5 mph23.3 kmh 29.56 in1001.0 mb 0.00 in0.0 mm 0.00 in0.0 mm 0.00 in0.0 mm
10:38 AM 57.9°F14.4°C 45.8°F7.7°C 64% 11.4 mph S18.3 kmh S 15.9 mph25.6 kmh 29.55 in1000.7 mb 0.00 in0.0 mm 0.00 in0.0 mm 0.00 in0.0 mm
10:33 AM 57.7°F14.3°C 45.6°F7.6°C 64% 16.8 mph S27.0 kmh S 21.3 mph34.3 kmh 29.55 in1000.7 mb 0.00 in0.0 mm 0.00 in0.0 mm 0.00 in0.0 mm
10:28 AM 57.6°F14.2°C 45.9°F7.7°C 65% 16.8 mph NW27.0 kmh NW 24.4 mph39.3 kmh 29.55 in1000.7 mb 0.00 in0.0 mm 0.00 in0.0 mm 0.00 in0.0 mm
10:23 AM 57.2°F14.0°C 45.5°F7.5°C 65% 12.1 mph NE19.5 kmh NE 19.7 mph31.7 kmh 29.55 in1000.7 mb 0.00 in0.0 mm 0.00 in0.0 mm 0.00 in0.0 mm
10:18 AM 56.8°F13.8°C 46.0°F7.8°C 67% 11.4 mph S18.3 kmh S 15.9 mph25.6 kmh 29.55 in1000.7 mb 0.00 in0.0 mm 0.00 in0.0 mm 0.00 in0.0 mm
10:13 AM 56.5°F13.6°C 45.7°F7.6°C 67% 7.6 mph SW12.2 kmh SW 13.6 mph21.9 kmh 29.55 in1000.7 mb 0.00 in0.0 mm 0.00 in0.0 mm 0.00 in0.0 mm
10:08 AM 56.1°F13.4°C 45.3°F7.4°C 67% 9.8 mph SE15.8 kmh SE 12.1 mph19.5 kmh 29.55 in1000.7 mb 0.00 in0.0 mm 0.00 in0.0 mm 0.00 in0.0 mm
10:03 AM 55.6°F13.1°C 45.2°F7.3°C 68% 9.8 mph NNE15.8 kmh NNE 17.4 mph28.0 kmh 29.55 in1000.7 mb 0.00 in0.0 mm 0.00 in0.0 mm 0.00 in0.0 mm
09:58 AM 55.4°F13.0°C 45.0°F7.2°C 68% 9.2 mph SW14.8 kmh SW 13.6 mph21.9 kmh 29.55 in1000.7 mb 0.00 in0.0 mm 0.00 in0.0 mm 0.00 in0.0 mm
09:53 AM 55.2°F12.9°C 45.2°F7.3°C 69% 7.6 mph SSE12.2 kmh SSE 12.1 mph19.5 kmh 29.54 in1000.3 mb 0.00 in0.0 mm 0.00 in0.0 mm 0.00 in0.0 mm
09:48 AM 55.0°F12.8°C 45.1°F7.3°C 69% 6.0 mph NW9.7 kmh NW 9.8 mph15.8 kmh 29.55 in1000.7 mb 0.00 in0.0 mm 0.00 in0.0 mm 0.00 in0.0 mm
09:43 AM 54.9°F12.7°C 44.9°F7.2°C 69% 5.4 mph SE8.7 kmh SE 7.6 mph12.2 kmh 29.54 in1000.3 mb 0.00 in0.0 mm 0.00 in0.0 mm 0.00 in0.0 mm
09:38 AM 54.3°F12.4°C 44.4°F6.9°C 69% 9.2 mph S14.8 kmh S 13.0 mph20.9 kmh 29.55 in1000.7 mb 0.00 in0.0 mm 0.00 in0.0 mm 0.00 in0.0 mm
09:33 AM 54.1°F12.3°C 44.2°F6.8°C 69% 7.6 mph SE12.2 kmh SE 13.0 mph20.9 kmh 29.54 in1000.3 mb 0.00 in0.0 mm 0.00 in0.0 mm 0.00 in0.0 mm
09:28 AM 53.8°F12.1°C 43.9°F6.6°C 69% 6.9 mph E11.1 kmh E 10.7 mph17.2 kmh 29.54 in1000.3 mb 0.00 in0.0 mm 0.00 in0.0 mm 0.00 in0.0 mm
09:23 AM 53.4°F11.9°C 44.3°F6.8°C 71% 11.4 mph S18.3 kmh S 16.8 mph27.0 kmh 29.54 in1000.3 mb 0.00 in0.0 mm 0.00 in0.0 mm 0.00 in0.0 mm
09:18 AM 53.4°F11.9°C 44.3°F6.8°C 71% 8.3 mph 13.4 kmh 14.5 mph23.3 kmh 29.54 in1000.3 mb 0.00 in0.0 mm 0.00 in0.0 mm 0.00 in0.0 mm
09:13 AM 53.2°F11.8°C 44.1°F6.7°C 71% 5.4 mph NNE8.7 kmh NNE 9.2 mph14.8 kmh 29.54 in1000.3 mb 0.00 in0.0 mm 0.00 in0.0 mm 0.00 in0.0 mm
09:08 AM 53.2°F11.8°C 44.1°F6.7°C 71% 10.7 mph SE17.2 kmh SE 13.6 mph21.9 kmh 29.54 in1000.3 mb 0.00 in0.0 mm 0.00 in0.0 mm 0.00 in0.0 mm
09:03 AM 53.2°F11.8°C 44.1°F6.7°C 71% 9.2 mph SE14.8 kmh SE 16.8 mph27.0 kmh 29.54 in1000.3 mb 0.00 in0.0 mm 0.00 in0.0 mm 0.00 in0.0 mm
08:58 AM 53.1°F11.7°C 43.9°F6.6°C 71% 9.2 mph SW14.8 kmh SW 12.1 mph19.5 kmh 29.53 in1000.0 mb 0.00 in0.0 mm 0.00 in0.0 mm 0.00 in0.0 mm
08:53 AM 53.1°F11.7°C 43.9°F6.6°C 71% 10.7 mph SE17.2 kmh SE 18.3 mph29.5 kmh 29.53 in1000.0 mb 0.00 in0.0 mm 0.00 in0.0 mm 0.00 in0.0 mm
08:48 AM 52.9°F11.6°C 43.7°F6.5°C 71% 6.9 mph S11.1 kmh S 12.1 mph19.5 kmh 29.54 in1000.3 mb 0.00 in0.0 mm 0.00 in0.0 mm 0.00 in0.0 mm
08:43 AM 52.9°F11.6°C 44.1°F6.7°C 72% 9.8 mph SW15.8 kmh SW 14.5 mph23.3 kmh 29.53 in1000.0 mb 0.00 in0.0 mm 0.00 in0.0 mm 0.00 in0.0 mm
08:38 AM 52.7°F11.5°C 43.9°F6.6°C 72% 8.3 mph SSE13.4 kmh SSE 20.6 mph33.2 kmh 29.53 in1000.0 mb 0.00 in0.0 mm 0.00 in0.0 mm 0.00 in0.0 mm
08:33 AM 52.5°F11.4°C 43.8°F6.6°C 72% 8.3 mph E13.4 kmh E 10.7 mph17.2 kmh 29.53 in1000.0 mb 0.00 in0.0 mm 0.00 in0.0 mm 0.00 in0.0 mm
08:28 AM 52.5°F11.4°C 43.8°F6.6°C 72% 4.5 mph SE7.2 kmh SE 6.9 mph11.1 kmh 29.54 in1000.3 mb 0.00 in0.0 mm 0.00 in0.0 mm 0.00 in0.0 mm
08:23 AM 52.5°F11.4°C 43.8°F6.6°C 72% 4.5 mph SW7.2 kmh SW 8.3 mph13.4 kmh 29.54 in1000.3 mb 0.00 in0.0 mm 0.00 in0.0 mm 0.00 in0.0 mm
08:18 AM 52.5°F11.4°C 43.4°F6.3°C 71% 5.4 mph SW8.7 kmh SW 10.7 mph17.2 kmh 29.53 in1000.0 mb 0.00 in0.0 mm 0.00 in0.0 mm 0.00 in0.0 mm
08:13 AM 52.5°F11.4°C 43.4°F6.3°C 71% 6.0 mph S9.7 kmh S 13.0 mph20.9 kmh 29.53 in1000.0 mb 0.00 in0.0 mm 0.00 in0.0 mm 0.00 in0.0 mm
08:08 AM 52.5°F11.4°C 43.4°F6.3°C 71% 4.5 mph SE7.2 kmh SE 9.2 mph14.8 kmh 29.54 in1000.3 mb 0.00 in0.0 mm 0.00 in0.0 mm 0.00 in0.0 mm
08:03 AM 52.5°F11.4°C 43.4°F6.3°C 71% 6.9 mph S11.1 kmh S 9.8 mph15.8 kmh 29.54 in1000.3 mb 0.00 in0.0 mm 0.00 in0.0 mm 0.00 in0.0 mm
07:58 AM 52.5°F11.4°C 43.4°F6.3°C 71% 3.8 mph S6.1 kmh S 6.0 mph9.7 kmh 29.53 in1000.0 mb 0.00 in0.0 mm 0.00 in0.0 mm 0.00 in0.0 mm
07:53 AM 52.5°F11.4°C 43.4°F6.3°C 71% 6.0 mph SSE9.7 kmh SSE 8.3 mph13.4 kmh 29.53 in1000.0 mb 0.00 in0.0 mm 0.00 in0.0 mm 0.00 in0.0 mm
07:48 AM 52.5°F11.4°C 43.4°F6.3°C 71% 3.8 mph S6.1 kmh S 7.6 mph12.2 kmh 29.52 in999.7 mb 0.00 in0.0 mm 0.00 in0.0 mm 0.00 in0.0 mm
07:43 AM 52.3°F11.3°C 42.8°F6.0°C 70% 9.2 mph SE14.8 kmh SE 13.0 mph20.9 kmh 29.53 in1000.0 mb 0.00 in0.0 mm 0.00 in0.0 mm 0.00 in0.0 mm
07:38 AM 52.3°F11.3°C 42.8°F6.0°C 70% 5.4 mph SW8.7 kmh SW 8.3 mph13.4 kmh 29.52 in999.7 mb 0.00 in0.0 mm 0.00 in0.0 mm 0.00 in0.0 mm
07:33 AM 52.3°F11.3°C 43.2°F6.2°C 71% 8.3 mph S13.4 kmh S 13.0 mph20.9 kmh 29.53 in1000.0 mb 0.00 in0.0 mm 0.00 in0.0 mm 0.00 in0.0 mm
07:28 AM 52.2°F11.2°C 43.0°F6.1°C 71% 5.4 mph E8.7 kmh E 9.2 mph14.8 kmh 29.52 in999.7 mb 0.00 in0.0 mm 0.00 in0.0 mm 0.00 in0.0 mm
07:23 AM 52.0°F11.1°C 42.9°F6.1°C 71% 8.3 mph NNE13.4 kmh NNE 13.6 mph21.9 kmh 29.52 in999.7 mb 0.00 in0.0 mm 0.00 in0.0 mm 0.00 in0.0 mm
07:18 AM 51.8°F11.0°C 42.7°F5.9°C 71% 6.9 mph E11.1 kmh E 12.1 mph19.5 kmh 29.53 in1000.0 mb 0.00 in0.0 mm 0.00 in0.0 mm 0.00 in0.0 mm
07:13 AM 51.8°F11.0°C 42.7°F5.9°C 71% 6.0 mph SE9.7 kmh SE 13.0 mph20.9 kmh 29.53 in1000.0 mb 0.00 in0.0 mm 0.00 in0.0 mm 0.00 in0.0 mm
07:08 AM 51.6°F10.9°C 42.9°F6.1°C 72% 6.0 mph S9.7 kmh S 9.8 mph15.8 kmh 29.53 in1000.0 mb 0.00 in0.0 mm 0.00 in0.0 mm 0.00 in0.0 mm
07:03 AM 51.4°F10.8°C 42.7°F5.9°C 72% 5.4 mph E8.7 kmh E 8.3 mph13.4 kmh 29.53 in1000.0 mb 0.00 in0.0 mm 0.00 in0.0 mm 0.00 in0.0 mm
06:58 AM 51.4°F10.8°C 42.7°F5.9°C 72% 4.5 mph S7.2 kmh S 7.6 mph12.2 kmh 29.53 in1000.0 mb 0.00 in0.0 mm 0.00 in0.0 mm 0.00 in0.0 mm
06:53 AM 51.4°F10.8°C 42.7°F5.9°C 72% 5.4 mph WNW8.7 kmh WNW 8.3 mph13.4 kmh 29.54 in1000.3 mb 0.00 in0.0 mm 0.00 in0.0 mm 0.00 in0.0 mm
06:48 AM 51.3°F10.7°C 42.5°F5.8°C 72% 7.6 mph S12.2 kmh S 13.6 mph21.9 kmh 29.54 in1000.3 mb 0.00 in0.0 mm 0.00 in0.0 mm 0.00 in0.0 mm
06:43 AM 51.3°F10.7°C 42.5°F5.8°C 72% 6.0 mph SE9.7 kmh SE 11.4 mph18.3 kmh 29.53 in1000.0 mb 0.00 in0.0 mm 0.00 in0.0 mm 0.00 in0.0 mm
06:38 AM 51.3°F10.7°C 42.5°F5.8°C 72% 4.5 mph SE7.2 kmh SE 6.9 mph11.1 kmh 29.53 in1000.0 mb 0.00 in0.0 mm 0.00 in0.0 mm 0.00 in0.0 mm
06:33 AM 51.3°F10.7°C 42.5°F5.8°C 72% 7.6 mph E12.2 kmh E 12.1 mph19.5 kmh 29.53 in1000.0 mb 0.00 in0.0 mm 0.00 in0.0 mm 0.00 in0.0 mm
06:28 AM 51.1°F10.6°C 42.4°F5.8°C 72% 8.3 mph SE13.4 kmh SE 15.2 mph24.5 kmh 29.54 in1000.3 mb 0.00 in0.0 mm 0.00 in0.0 mm 0.00 in0.0 mm
06:23 AM 51.1°F10.6°C 42.4°F5.8°C 72% 6.0 mph SE9.7 kmh SE 8.3 mph13.4 kmh 29.54 in1000.3 mb 0.00 in0.0 mm 0.00 in0.0 mm 0.00 in0.0 mm
06:18 AM 51.1°F10.6°C 42.4°F5.8°C 72% 6.9 mph ESE11.1 kmh ESE 9.8 mph15.8 kmh 29.53 in1000.0 mb 0.00 in0.0 mm 0.00 in0.0 mm 0.00 in0.0 mm
06:13 AM 51.1°F10.6°C 42.0°F5.6°C 71% 10.7 mph S17.2 kmh S 13.0 mph20.9 kmh 29.53 in1000.0 mb 0.00 in0.0 mm 0.00 in0.0 mm 0.00 in0.0 mm
06:08 AM 51.1°F10.6°C 42.0°F5.6°C 71% 6.0 mph E9.7 kmh E 9.2 mph14.8 kmh 29.53 in1000.0 mb 0.00 in0.0 mm 0.00 in0.0 mm 0.00 in0.0 mm
06:03 AM 51.1°F10.6°C 42.0°F5.6°C 71% 5.4 mph SE8.7 kmh SE 10.7 mph17.2 kmh 29.53 in1000.0 mb 0.00 in0.0 mm 0.00 in0.0 mm 0.00 in0.0 mm
05:58 AM 51.1°F10.6°C 42.0°F5.6°C 71% 6.9 mph SE11.1 kmh SE 9.2 mph14.8 kmh 29.53 in1000.0 mb 0.00 in0.0 mm 0.00 in0.0 mm 0.00 in0.0 mm
05:53 AM 51.1°F10.6°C 42.0°F5.6°C 71% 6.9 mph S11.1 kmh S 10.7 mph17.2 kmh 29.53 in1000.0 mb 0.00 in0.0 mm 0.00 in0.0 mm 0.00 in0.0 mm
05:48 AM 51.1°F10.6°C 42.0°F5.6°C 71% 6.9 mph S11.1 kmh S 12.1 mph19.5 kmh 29.53 in1000.0 mb 0.00 in0.0 mm 0.00 in0.0 mm 0.00 in0.0 mm
05:43 AM 51.1°F10.6°C 41.6°F5.3°C 70% 5.4 mph E8.7 kmh E 8.3 mph13.4 kmh 29.53 in1000.0 mb 0.00 in0.0 mm 0.00 in0.0 mm 0.00 in0.0 mm
05:38 AM 51.1°F10.6°C 41.6°F5.3°C 70% 5.4 mph 8.7 kmh 9.8 mph15.8 kmh 29.54 in1000.3 mb 0.00 in0.0 mm 0.00 in0.0 mm 0.00 in0.0 mm
05:33 AM 51.1°F10.6°C 41.6°F5.3°C 70% 6.9 mph SE11.1 kmh SE 13.6 mph21.9 kmh 29.54 in1000.3 mb 0.00 in0.0 mm 0.00 in0.0 mm 0.00 in0.0 mm
05:28 AM 51.1°F10.6°C 41.6°F5.3°C 70% 7.6 mph E12.2 kmh E 11.4 mph18.3 kmh 29.54 in1000.3 mb 0.00 in0.0 mm 0.00 in0.0 mm 0.00 in0.0 mm
05:23 AM 51.1°F10.6°C 41.6°F5.3°C 70% 6.9 mph W11.1 kmh W 9.8 mph15.8 kmh 29.55 in1000.7 mb 0.00 in0.0 mm 0.00 in0.0 mm 0.00 in0.0 mm
05:18 AM 50.9°F10.5°C 41.5°F5.3°C 70% 7.6 mph S12.2 kmh S 15.9 mph25.6 kmh 29.54 in1000.3 mb 0.00 in0.0 mm 0.00 in0.0 mm 0.00 in0.0 mm
05:13 AM 50.9°F10.5°C 41.5°F5.3°C 70% 8.3 mph W13.4 kmh W 15.9 mph25.6 kmh 29.54 in1000.3 mb 0.00 in0.0 mm 0.00 in0.0 mm 0.00 in0.0 mm
05:08 AM 50.9°F10.5°C 41.5°F5.3°C 70% 14.5 mph SSW23.3 kmh SSW 17.4 mph28.0 kmh 29.55 in1000.7 mb 0.00 in0.0 mm 0.00 in0.0 mm 0.00 in0.0 mm
05:03 AM 50.9°F10.5°C 41.5°F5.3°C 70% 6.9 mph S11.1 kmh S 12.1 mph19.5 kmh 29.55 in1000.7 mb 0.00 in0.0 mm 0.00 in0.0 mm 0.00 in0.0 mm
04:58 AM 50.7°F10.4°C 40.9°F4.9°C 69% 5.4 mph E8.7 kmh E 10.7 mph17.2 kmh 29.54 in1000.3 mb 0.00 in0.0 mm 0.00 in0.0 mm 0.00 in0.0 mm
04:53 AM 50.7°F10.4°C 40.9°F4.9°C 69% 4.5 mph SE7.2 kmh SE 8.3 mph13.4 kmh 29.53 in1000.0 mb 0.00 in0.0 mm 0.00 in0.0 mm 0.00 in0.0 mm
04:48 AM 50.7°F10.4°C 40.9°F4.9°C 69% 6.0 mph ESE9.7 kmh ESE 9.8 mph15.8 kmh 29.54 in1000.3 mb 0.00 in0.0 mm 0.00 in0.0 mm 0.00 in0.0 mm
04:43 AM 50.7°F10.4°C 40.9°F4.9°C 69% 5.4 mph 8.7 kmh 9.8 mph15.8 kmh 29.54 in1000.3 mb 0.00 in0.0 mm 0.00 in0.0 mm 0.00 in0.0 mm
04:38 AM 50.7°F10.4°C 40.9°F4.9°C 69% 5.4 mph SE8.7 kmh SE 9.2 mph14.8 kmh 29.54 in1000.3 mb 0.00 in0.0 mm 0.00 in0.0 mm 0.00 in0.0 mm
04:33 AM 50.7°F10.4°C 40.9°F4.9°C 69% 4.5 mph SE7.2 kmh SE 7.6 mph12.2 kmh 29.54 in1000.3 mb 0.00 in0.0 mm 0.00 in0.0 mm 0.00 in0.0 mm
04:28 AM 50.5°F10.3°C 40.8°F4.9°C 69% 10.7 mph SW17.2 kmh SW 13.6 mph21.9 kmh 29.54 in1000.3 mb 0.00 in0.0 mm 0.00 in0.0 mm 0.00 in0.0 mm
04:23 AM 50.5°F10.3°C 40.8°F4.9°C 69% 4.5 mph S7.2 kmh S 6.9 mph11.1 kmh 29.54 in1000.3 mb 0.00 in0.0 mm 0.00 in0.0 mm 0.00 in0.0 mm
04:17 AM 50.5°F10.3°C 40.8°F4.9°C 69% 5.4 mph S8.7 kmh S 7.6 mph12.2 kmh 29.54 in1000.3 mb 0.00 in0.0 mm 0.00 in0.0 mm 0.00 in0.0 mm
04:12 AM 50.5°F10.3°C 40.8°F4.9°C 69% 6.9 mph SW11.1 kmh SW 9.8 mph15.8 kmh 29.54 in1000.3 mb 0.00 in0.0 mm 0.00 in0.0 mm 0.00 in0.0 mm
04:07 AM 50.5°F10.3°C 40.8°F4.9°C 69% 6.0 mph S9.7 kmh S 11.4 mph18.3 kmh 29.55 in1000.7 mb 0.00 in0.0 mm 0.00 in0.0 mm 0.00 in0.0 mm
04:02 AM 50.5°F10.3°C 41.1°F5.1°C 70% 9.8 mph SW15.8 kmh SW 13.6 mph21.9 kmh 29.55 in1000.7 mb 0.00 in0.0 mm 0.00 in0.0 mm 0.00 in0.0 mm
03:57 AM 50.4°F10.2°C 41.0°F5.0°C 70% 7.6 mph SE12.2 kmh SE 13.0 mph20.9 kmh 29.55 in1000.7 mb 0.00 in0.0 mm 0.00 in0.0 mm 0.00 in0.0 mm
03:52 AM 50.2°F10.1°C 40.8°F4.9°C 70% 8.3 mph S13.4 kmh S 14.5 mph23.3 kmh 29.55 in1000.7 mb 0.00 in0.0 mm 0.00 in0.0 mm 0.00 in0.0 mm
03:47 AM 49.6°F9.8°C 41.0°F5.0°C 72% 7.6 mph S12.2 kmh S 14.5 mph23.3 kmh 29.55 in1000.7 mb 0.00 in0.0 mm 0.00 in0.0 mm 0.00 in0.0 mm
03:42 AM 49.5°F9.7°C 41.2°F5.1°C 73% 6.9 mph E11.1 kmh E 15.2 mph24.5 kmh 29.54 in1000.3 mb 0.00 in0.0 mm 0.00 in0.0 mm 0.00 in0.0 mm
03:37 AM 48.9°F9.4°C 41.0°F5.0°C 74% 6.0 mph S9.7 kmh S 9.2 mph14.8 kmh 29.54 in1000.3 mb 0.00 in0.0 mm 0.00 in0.0 mm 0.00 in0.0 mm
03:32 AM 48.6°F9.2°C 40.7°F4.8°C 74% 3.8 mph SE6.1 kmh SE 7.6 mph12.2 kmh 29.53 in1000.0 mb 0.00 in0.0 mm 0.00 in0.0 mm 0.00 in0.0 mm
03:27 AM 48.2°F9.0°C 40.3°F4.6°C 74% 6.0 mph S9.7 kmh S 8.3 mph13.4 kmh 29.54 in1000.3 mb 0.00 in0.0 mm 0.00 in0.0 mm 0.00 in0.0 mm
03:22 AM 47.7°F8.7°C 40.1°F4.5°C 75% 5.4 mph SSE8.7 kmh SSE 9.8 mph15.8 kmh 29.55 in1000.7 mb 0.00 in0.0 mm 0.00 in0.0 mm 0.00 in0.0 mm
03:17 AM 47.7°F8.7°C 40.1°F4.5°C 75% 5.4 mph S8.7 kmh S 8.3 mph13.4 kmh 29.55 in1000.7 mb 0.00 in0.0 mm 0.00 in0.0 mm 0.00 in0.0 mm
03:12 AM 47.5°F8.6°C 40.0°F4.4°C 75% 6.0 mph E9.7 kmh E 10.7 mph17.2 kmh 29.56 in1001.0 mb 0.00 in0.0 mm 0.00 in0.0 mm 0.00 in0.0 mm
03:07 AM 47.3°F8.5°C 39.8°F4.3°C 75% 3.8 mph S6.1 kmh S 5.4 mph8.7 kmh 29.56 in1001.0 mb 0.00 in0.0 mm 0.00 in0.0 mm 0.00 in0.0 mm
03:02 AM 47.3°F8.5°C 39.8°F4.3°C 75% 4.5 mph SE7.2 kmh SE 8.3 mph13.4 kmh 29.57 in1001.4 mb 0.00 in0.0 mm 0.00 in0.0 mm 0.00 in0.0 mm
02:57 AM 47.3°F8.5°C 39.8°F4.3°C 75% 4.5 mph SE7.2 kmh SE 7.6 mph12.2 kmh 29.57 in1001.4 mb 0.00 in0.0 mm 0.00 in0.0 mm 0.00 in0.0 mm
02:52 AM 47.3°F8.5°C 39.8°F4.3°C 75% 2.2 mph SE3.5 kmh SE 4.5 mph7.2 kmh 29.57 in1001.4 mb 0.00 in0.0 mm 0.00 in0.0 mm 0.00 in0.0 mm
02:47 AM 47.3°F8.5°C 39.8°F4.3°C 75% 4.5 mph SE7.2 kmh SE 6.0 mph9.7 kmh 29.57 in1001.4 mb 0.00 in0.0 mm 0.00 in0.0 mm 0.00 in0.0 mm
02:42 AM 47.3°F8.5°C 39.8°F4.3°C 75% 2.2 mph S3.5 kmh S 5.4 mph8.7 kmh 29.57 in1001.4 mb 0.00 in0.0 mm 0.00 in0.0 mm 0.00 in0.0 mm
02:37 AM 47.3°F8.5°C 39.8°F4.3°C 75% 5.4 mph SE8.7 kmh SE 8.3 mph13.4 kmh 29.57 in1001.4 mb 0.00 in0.0 mm 0.00 in0.0 mm 0.00 in0.0 mm
02:32 AM 47.1°F8.4°C 39.6°F4.2°C 75% 6.0 mph SE9.7 kmh SE 9.8 mph15.8 kmh 29.57 in1001.4 mb 0.00 in0.0 mm 0.00 in0.0 mm 0.00 in0.0 mm
02:27 AM 47.3°F8.5°C 39.8°F4.3°C 75% 4.5 mph S7.2 kmh S 6.0 mph9.7 kmh 29.58 in1001.7 mb 0.00 in0.0 mm 0.00 in0.0 mm 0.00 in0.0 mm
02:22 AM 47.3°F8.5°C 39.8°F4.3°C 75% 3.1 mph SE5.0 kmh SE 6.9 mph11.1 kmh 29.59 in1002.0 mb 0.00 in0.0 mm 0.00 in0.0 mm 0.00 in0.0 mm
02:17 AM 47.3°F8.5°C 39.8°F4.3°C 75% 5.4 mph SE8.7 kmh SE 6.9 mph11.1 kmh 29.58 in1001.7 mb 0.00 in0.0 mm 0.00 in0.0 mm 0.00 in0.0 mm
02:12 AM 47.3°F8.5°C 39.8°F4.3°C 75% 3.8 mph SE6.1 kmh SE 9.2 mph14.8 kmh 29.58 in1001.7 mb 0.00 in0.0 mm 0.00 in0.0 mm 0.00 in0.0 mm
02:07 AM 47.1°F8.4°C 39.6°F4.2°C 75% 2.2 mph S3.5 kmh S 5.4 mph8.7 kmh 29.58 in1001.7 mb 0.00 in0.0 mm 0.00 in0.0 mm 0.00 in0.0 mm
02:02 AM 47.1°F8.4°C 39.6°F4.2°C 75% 2.2 mph S3.5 kmh S 3.1 mph5.0 kmh 29.58 in1001.7 mb 0.00 in0.0 mm 0.00 in0.0 mm 0.00 in0.0 mm
01:57 AM 47.1°F8.4°C 39.6°F4.2°C 75% 2.2 mph SE3.5 kmh SE 4.5 mph7.2 kmh 29.58 in1001.7 mb 0.00 in0.0 mm 0.00 in0.0 mm 0.00 in0.0 mm
01:52 AM 47.1°F8.4°C 39.6°F4.2°C 75% 5.4 mph SSE8.7 kmh SSE 8.3 mph13.4 kmh 29.58 in1001.7 mb 0.00 in0.0 mm 0.00 in0.0 mm 0.00 in0.0 mm
01:47 AM 47.1°F8.4°C 39.6°F4.2°C 75% 4.5 mph S7.2 kmh S 6.9 mph11.1 kmh 29.58 in1001.7 mb 0.00 in0.0 mm 0.00 in0.0 mm 0.00 in0.0 mm
01:42 AM 47.1°F8.4°C 39.6°F4.2°C 75% 5.4 mph S8.7 kmh S 7.6 mph12.2 kmh 29.59 in1002.0 mb 0.00 in0.0 mm 0.00 in0.0 mm 0.00 in0.0 mm
01:37 AM 47.1°F8.4°C 39.6°F4.2°C 75% 2.2 mph SSE3.5 kmh SSE 4.5 mph7.2 kmh 29.59 in1002.0 mb 0.00 in0.0 mm 0.00 in0.0 mm 0.00 in0.0 mm
01:32 AM 47.1°F8.4°C 39.6°F4.2°C 75% 3.1 mph SE5.0 kmh SE 4.5 mph7.2 kmh 29.59 in1002.0 mb 0.00 in0.0 mm 0.00 in0.0 mm 0.00 in0.0 mm
01:27 AM 47.1°F8.4°C 39.6°F4.2°C 75% 6.0 mph S9.7 kmh S 9.2 mph14.8 kmh 29.58 in1001.7 mb 0.00 in0.0 mm 0.00 in0.0 mm 0.00 in0.0 mm
01:22 AM 46.9°F8.3°C 39.8°F4.3°C 76% 5.4 mph SE8.7 kmh SE 8.3 mph13.4 kmh 29.58 in1001.7 mb 0.00 in0.0 mm 0.00 in0.0 mm 0.00 in0.0 mm
01:17 AM 46.8°F8.2°C 39.6°F4.2°C 76% 6.0 mph SE9.7 kmh SE 8.3 mph13.4 kmh 29.59 in1002.0 mb 0.00 in0.0 mm 0.00 in0.0 mm 0.00 in0.0 mm
01:12 AM 46.8°F8.2°C 39.6°F4.2°C 76% 4.5 mph SE7.2 kmh SE 9.8 mph15.8 kmh 29.59 in1002.0 mb 0.00 in0.0 mm 0.00 in0.0 mm 0.00 in0.0 mm
01:07 AM 46.6°F8.1°C 39.4°F4.1°C 76% 5.4 mph SE8.7 kmh SE 8.3 mph13.4 kmh 29.59 in1002.0 mb 0.00 in0.0 mm 0.00 in0.0 mm 0.00 in0.0 mm
01:02 AM 46.6°F8.1°C 39.4°F4.1°C 76% 4.5 mph SSE7.2 kmh SSE 8.3 mph13.4 kmh 29.59 in1002.0 mb 0.00 in0.0 mm 0.00 in0.0 mm 0.00 in0.0 mm
12:57 AM 46.6°F8.1°C 39.4°F4.1°C 76% 4.5 mph SW7.2 kmh SW 7.6 mph12.2 kmh 29.59 in1002.0 mb 0.00 in0.0 mm 0.00 in0.0 mm 0.00 in0.0 mm
12:52 AM 46.6°F8.1°C 39.4°F4.1°C 76% 3.8 mph SE6.1 kmh SE 8.3 mph13.4 kmh 29.60 in1002.4 mb 0.00 in0.0 mm 0.00 in0.0 mm 0.00 in0.0 mm
12:47 AM 46.6°F8.1°C 39.4°F4.1°C 76% 3.1 mph ESE5.0 kmh ESE 4.5 mph7.2 kmh 29.60 in1002.4 mb 0.00 in0.0 mm 0.00 in0.0 mm 0.00 in0.0 mm
12:42 AM 46.4°F8.0°C 39.3°F4.1°C 76% 3.8 mph E6.1 kmh E 6.0 mph9.7 kmh 29.59 in1002.0 mb 0.00 in0.0 mm 0.00 in0.0 mm 0.00 in0.0 mm
12:37 AM 46.4°F8.0°C 39.3°F4.1°C 76% 5.4 mph SE8.7 kmh SE 9.2 mph14.8 kmh 29.59 in1002.0 mb 0.00 in0.0 mm 0.00 in0.0 mm 0.00 in0.0 mm
12:32 AM 46.6°F8.1°C 39.4°F4.1°C 76% 3.1 mph S5.0 kmh S 5.4 mph8.7 kmh 29.60 in1002.4 mb 0.00 in0.0 mm 0.00 in0.0 mm 0.00 in0.0 mm
12:27 AM 46.6°F8.1°C 39.4°F4.1°C 76% 6.0 mph SE9.7 kmh SE 8.3 mph13.4 kmh 29.59 in1002.0 mb 0.00 in0.0 mm 0.00 in0.0 mm 0.00 in0.0 mm
12:22 AM 46.6°F8.1°C 39.4°F4.1°C 76% 4.5 mph SE7.2 kmh SE 7.6 mph12.2 kmh 29.60 in1002.4 mb 0.00 in0.0 mm 0.00 in0.0 mm 0.00 in0.0 mm
12:17 AM 46.8°F8.2°C 39.6°F4.2°C 76% 3.1 mph E5.0 kmh E 6.9 mph11.1 kmh 29.60 in1002.4 mb 0.00 in0.0 mm 0.00 in0.0 mm 0.00 in0.0 mm
12:12 AM 46.8°F8.2°C 39.6°F4.2°C 76% 6.0 mph S9.7 kmh S 9.8 mph15.8 kmh 29.60 in1002.4 mb 0.00 in0.0 mm 0.00 in0.0 mm 0.00 in0.0 mm
12:07 AM 46.8°F8.2°C 39.9°F4.4°C 77% 4.5 mph S7.2 kmh S 6.0 mph9.7 kmh 29.60 in1002.4 mb 0.00 in0.0 mm 0.00 in0.0 mm 0.00 in0.0 mm
12:02 AM 46.8°F8.2°C 39.9°F4.4°C 77% 4.5 mph S7.2 kmh S 6.0 mph9.7 kmh 29.60 in1002.4 mb 0.00 in0.0 mm 0.00 in0.0 mm 0.00 in0.0 mm